Brazoria County Airport Angleton, Lake Jackson US
ICAO: KLBX
IATA: LBX
Category: Medium
Scheduled Services: No

Elevation: 25 ft
TransAlt. 18000 ft.

Airport Communications:
HOUSTON APP/DEP:134.45
ASOS:119.925
CLNC DEL:125.2
CTAF/UNICOM:123

KLBX Zoom In..

If you have problems with the map follow the link
https://www.worldairports.se/pages/airport.php?
ICAO=KLBX

Runways:

(A) RW 17 length 7000 ft width 100 ft
ILS 109.10 / hdg 175

(B) RW 35 length 7000 ft width 100 ft
---- / hdg 355

Location; KLBX
Day. 22 / Time. 17.06 Zulu
* Altimeter: 29.94
* Temperature: 19° c. 66.2°f.
* Wind from: 140° Speed 09 kn.
Dewpoint: 19° c.
Visibility: 1 Statute Miles.
Clouds: Overcast 200 ft.
Conditions: Mist.

KLBX 221706Z AUTO 14009KT 1SM BR OVC002 19/19 A2994 RMK AO2 T01940194


Wind From 140°
Speed 09 kn.

 
 
jpsmedia.com for Web Design worldairports.se 2019   terms of use